^^
Station Historical Data
Daily Summary for August 27, 2017 Units:  Metric    English   Both
« Previous Day
Next Day »
Daily Weekly Monthly Yearly Custom
  High: Low: Average:
Temperature: 29.7 °C 7.2 °C 15.1 °C
Dew Point: -5.2 °C -10.2 °C -8 °C
Humidity: 32% 7% 22%
Wind Speed: 24.1km/h 0km/h 2.7km/h
Wind Gust: 25.7km/h - -
Wind- - NNW
Pressure: 1018.5 hPa 1012.8 hPa -
Precipitation: 0 mm    
Historical Graphs
 
 
Tabular Data for August 27, 2017
Time Temperature Dew Point Pressure Wind Wind Speed Wind Gust Humidity Rainfall Rate (Hourly) solar Conditions
00:04 11.3 °C -7.5 °C 1015.5 hPa Calm     26% 0 mm 0.0 W/m2
00:09 11.1 °C -7.7 °C 1015.5 hPa Calm     26% 0 mm 0.0 W/m2
00:15 10.9 °C -7.4 °C 1015.5 hPa Calm     27% 0 mm 0.0 W/m2
00:20 10.7 °C -7.1 °C 1015.8 hPa Calm     28% 0 mm 0.0 W/m2
00:31 10.4 °C -7.3 °C 1015.5 hPa Calm     28% 0 mm 0.0 W/m2
00:36 10.4 °C -6.9 °C 1015.5 hPa Calm     29% 0 mm 0.0 W/m2
00:46 10.6 °C -8.1 °C 1015.5 hPa Calm     26% 0 mm 0.0 W/m2
00:51 10.4 °C -8.3 °C 1015.8 hPa Calm     26% 0 mm 0.0 W/m2
00:56 10.2 °C -8 °C 1015.5 hPa Calm     27% 0 mm 0.0 W/m2
01:01 9.9 °C -8.7 °C 1015.5 hPa Calm     26% 0 mm 0.0 W/m2
01:06 9.7 °C -7.9 °C 1015.5 hPa Calm     28% 0 mm 0.0 W/m2
01:17 9.7 °C -7.5 °C 1015.5 hPa Calm     29% 0 mm 0.0 W/m2
01:22 9.7 °C -7.9 °C 1015.8 hPa Calm     28% 0 mm 0.0 W/m2
01:27 9.6 °C -7.6 °C 1015.5 hPa Calm     29% 0 mm 0.0 W/m2
01:33 9.4 °C -8.2 °C 1015.5 hPa Calm     28% 0 mm 0.0 W/m2
01:38 9.3 °C -7.4 °C 1015.5 hPa Calm     30% 0 mm 0.0 W/m2
01:43 9.2 °C -7.5 °C 1015.5 hPa Calm     30% 0 mm 0.0 W/m2
01:48 9.2 °C -7.9 °C 1015.5 hPa Calm     29% 0 mm 0.0 W/m2
01:58 9 °C -8.6 °C 1015.5 hPa Calm     28% 0 mm 0.0 W/m2
02:04 9.1 °C -8 °C 1015.5 hPa Calm     29% 0 mm 0.0 W/m2
02:09 9 °C -8.6 °C 1015.5 hPa Calm     28% 0 mm 0.0 W/m2
02:14 8.9 °C -8.2 °C 1015.5 hPa Calm     29% 0 mm 0.0 W/m2
02:24 8.8 °C -7.8 °C 1015.5 hPa Calm     30% 0 mm 0.0 W/m2
02:29 9.1 °C -8 °C 1015.5 hPa Calm     29% 0 mm 0.0 W/m2
02:34 9.2 °C -7.9 °C 1015.5 hPa Calm     29% 0 mm 0.0 W/m2
02:40 9 °C -8.1 °C 1015.5 hPa Calm     29% 0 mm 0.0 W/m2
02:45 8.9 °C -8.2 °C 1015.5 hPa Calm     29% 0 mm 0.0 W/m2
02:50 8.8 °C -7.8 °C 1015.5 hPa Calm     30% 0 mm 0.0 W/m2
02:55 8.6 °C -8 °C 1015.5 hPa Calm     30% 0 mm 0.0 W/m2
03:00 8.5 °C -8.5 °C 1015.5 hPa Calm     29% 0 mm 0.0 W/m2
03:05 8.3 °C -8.3 °C 1015.8 hPa Calm     30% 0 mm 0.0 W/m2
03:10 8.1 °C -8 °C 1015.5 hPa Calm     31% 0 mm 0.0 W/m2
03:16 8 °C -8.5 °C 1015.8 hPa Calm     30% 0 mm 0.0 W/m2
03:21 7.9 °C -8.6 °C 1015.5 hPa Calm     30% 0 mm 0.0 W/m2
03:26 7.9 °C -8.2 °C 1015.5 hPa Calm     31% 0 mm 0.0 W/m2
03:32 7.9 °C -8.2 °C 1015.5 hPa Calm     31% 0 mm 0.0 W/m2
03:37 7.9 °C -8.2 °C 1015.8 hPa Calm     31% 0 mm 0.0 W/m2
03:42 7.9 °C -8.6 °C 1015.8 hPa Calm     30% 0 mm 0.0 W/m2
03:47 7.8 °C -8.7 °C 1015.8 hPa Calm     30% 0 mm 0.0 W/m2
03:52 7.8 °C -8.7 °C 1015.8 hPa Calm     30% 0 mm 0.0 W/m2
03:58 7.7 °C -8.8 °C 1016.1 hPa Calm     30% 0 mm 0.0 W/m2
04:03 7.6 °C -8.9 °C 1016.1 hPa Calm     30% 0 mm 0.0 W/m2
04:13 7.5 °C -9 °C 1016.1 hPa Calm     30% 0 mm 0.0 W/m2
04:23 7.6 °C -8.9 °C 1016.1 hPa Calm     30% 0 mm 0.0 W/m2
04:34 7.6 °C -8.9 °C 1016.1 hPa Calm     30% 0 mm 0.0 W/m2
04:44 7.7 °C -8.4 °C 1016.5 hPa Calm     31% 0 mm 0.0 W/m2
04:49 7.9 °C -8.2 °C 1016.5 hPa Calm     31% 0 mm 0.0 W/m2
04:54 8 °C -8.1 °C 1016.5 hPa Calm     31% 0 mm 0.0 W/m2
05:01 8.1 °C -8.4 °C 1016.5 hPa Calm     30% 0 mm 0.0 W/m2
05:04 7.9 °C -8.6 °C 1016.5 hPa Calm     30% 0 mm 0.0 W/m2
05:13 7.8 °C -8.3 °C 1016.5 hPa Calm     31% 0 mm 0.0 W/m2
05:25 7.6 °C -8.9 °C 1016.8 hPa Calm     30% 0 mm 0.0 W/m2
05:33 7.4 °C -8.6 °C 1016.8 hPa Calm     31% 0 mm 0.0 W/m2
05:41 7.2 °C -8.4 °C 1016.8 hPa Calm     32% 0 mm 0.0 W/m2
07:08 11.9 °C -6.5 °C 1017.8 hPa Calm   12.9 km/h 27% 0 mm 142.0 W/m2
07:18 13.1 °C -6.5 °C 1017.8 hPa Calm     25% 0 mm 185.0 W/m2
07:27 13.6 °C -6.6 °C 1017.8 hPa Calm     24% 0 mm 206.0 W/m2
07:39 14.3 °C -6 °C 1017.8 hPa Calm     24% 0 mm 244.0 W/m2
07:53 15.3 °C -6.3 °C 1017.8 hPa Calm     22% 0 mm 297.0 W/m2
08:04 16.1 °C -5.6 °C 1018.2 hPa Calm     22% 0 mm 330.0 W/m2
08:17 17.3 °C -5.2 °C 1018.2 hPa Calm     21% 0 mm 380.0 W/m2
08:25 18.3 °C -5.7 °C 1018.2 hPa NNW 9.7 km/h 11.3 km/h 19% 0 mm 413.0 W/m2
08:44 19.2 °C -6.5 °C 1018.2 hPa Calm   17.7 km/h 17% 0 mm 459.0 W/m2
08:50 19.6 °C -6.1 °C 1018.5 hPa NNW 1.4 km/h 11.3 km/h 17% 0 mm 482.0 W/m2
09:00 19.8 °C -6 °C 1018.5 hPa NNW 1.4 km/h 11.3 km/h 17% 0 mm 513.0 W/m2
09:10 20 °C -6.6 °C 1018.5 hPa Calm   17.7 km/h 16% 0 mm 541.0 W/m2
09:23 20 °C -6.6 °C 1018.5 hPa NNW 13 km/h 20.9 km/h 16% 0 mm 564.0 W/m2
09:30 20.3 °C -6.4 °C 1018.5 hPa NNW 9.7 km/h 19.3 km/h 16% 0 mm 585.0 W/m2
10:26 21.7 °C -7 °C 1017.8 hPa NNW 7.9 km/h 14.5 km/h 14% 0 mm 696.0 W/m2
10:34 21.9 °C -6.8 °C 1017.8 hPa NNW 6.4 km/h 11.3 km/h 14% 0 mm 703.0 W/m2
10:40 22.1 °C -7.6 °C 1017.8 hPa Calm   14.5 km/h 13% 0 mm 710.0 W/m2
10:51 22.4 °C -7.4 °C 1017.5 hPa NNW 14.3 km/h 17.7 km/h 13% 0 mm 721.0 W/m2
11:00 22.6 °C -7.2 °C 1017.2 hPa NNW 6.4 km/h 22.5 km/h 13% 0 mm 731.0 W/m2
11:07 23.2 °C -6.8 °C 1016.8 hPa NNW 19.5 km/h 19.5 km/h 13% 0 mm 742.0 W/m2
11:20 23.6 °C -7.5 °C 1016.8 hPa NNW 3.2 km/h 14.5 km/h 12% 0 mm 749.0 W/m2
11:27 24.2 °C -7 °C 1016.5 hPa NNW 7.9 km/h 12.9 km/h 12% 0 mm 752.0 W/m2
11:38 24.6 °C -6.7 °C 1016.1 hPa NNW 19.5 km/h 20.9 km/h 12% 0 mm 758.0 W/m2
12:39 26.9 °C -8.7 °C 1014.8 hPa Calm   12.9 km/h 9% 0 mm 738.0 W/m2
12:42 26.9 °C -8.7 °C 1014.8 hPa Calm   9.7 km/h 9% 0 mm 733.0 W/m2
12:47 26.9 °C -8.7 °C 1014.4 hPa Calm     9% 0 mm 729.0 W/m2
12:57 27.2 °C -8.4 °C 1014.1 hPa NNW 22.7 km/h 25.7 km/h 9% 0 mm 715.0 W/m2
13:08 27.6 °C -8.1 °C 1014.4 hPa Calm   12.9 km/h 9% 0 mm 698.0 W/m2
13:18 27.8 °C -8 °C 1014.1 hPa North 9.7 km/h 11.3 km/h 9% 0 mm 687.0 W/m2
13:32 28.2 °C -9.2 °C 1014.1 hPa Calm   11.3 km/h 8% 0 mm 668.0 W/m2
13:38 28.7 °C -8.8 °C 1013.8 hPa Calm   9.7 km/h 8% 0 mm 650.0 W/m2
13:49 29.2 °C -10.2 °C 1013.4 hPa North 6.4 km/h 6.4 km/h 7% 0 mm 629.0 W/m2
14:19 29.3 °C -10.1 °C 1013.1 hPa North 13 km/h 16.1 km/h 7% 0 mm 557.0 W/m2
14:34 29.7 °C -9.8 °C 1012.8 hPa North 14.3 km/h 14.5 km/h 7% 0 mm 515.0 W/m2
14:52 29.6 °C -9.9 °C 1012.8 hPa North 24.1 km/h 24.1 km/h 7% 0 mm 476.0 W/m2
15:05 29.5 °C -9.9 °C 1012.8 hPa North 7.9 km/h 14.5 km/h 7% 0 mm 448.0 W/m2
15:14 29.6 °C -9.9 °C 1012.8 hPa North 19.5 km/h 25.7 km/h 7% 0 mm 396.0 W/m2
15:28 29.4 °C -10 °C 1012.8 hPa North 1.4 km/h 11.3 km/h 7% 0 mm 364.0 W/m2
15:38 29.5 °C -9.9 °C 1012.8 hPa North 7.9 km/h 17.7 km/h 7% 0 mm 329.0 W/m2
15:49 29.6 °C -9.9 °C 1012.8 hPa North 11.1 km/h 14.5 km/h 7% 0 mm 297.0 W/m2
15:56 29.6 °C -9.9 °C 1012.8 hPa North 1.4 km/h 11.3 km/h 7% 0 mm 267.0 W/m2
Canyon Roadhouse, Fishriver Canyon, Namibia
Compliments of Weather Underground - 2 mb